createdAt,value
2018-10-05T00:01:27.190Z,89.60
2018-10-05T00:02:27.210Z,89.31
2018-10-05T00:04:20.100Z,89.79
2018-10-05T00:05:20.115Z,89.69
2018-10-05T00:07:13.024Z,89.69
2018-10-05T00:08:13.036Z,89.60
2018-10-05T00:10:05.951Z,89.40
2018-10-05T00:11:05.968Z,89.89
2018-10-05T00:12:58.875Z,89.22
2018-10-05T00:13:58.884Z,89.40
2018-10-05T00:15:51.789Z,88.84
2018-10-05T00:16:51.802Z,88.74
2018-10-05T00:18:44.906Z,89.03
2018-10-05T00:19:44.918Z,89.22
2018-10-05T00:21:37.823Z,89.03
2018-10-05T00:22:37.832Z,89.12
2018-10-05T00:24:30.732Z,88.93
2018-10-05T00:25:30.749Z,89.40
2018-10-05T00:27:23.661Z,89.03
2018-10-05T00:28:23.671Z,89.12
2018-10-05T00:30:16.567Z,89.12
2018-10-05T00:31:16.584Z,89.03
2018-10-05T00:33:09.518Z,88.93
2018-10-05T00:34:09.503Z,88.64
2018-10-05T00:36:02.403Z,88.64
2018-10-05T00:37:02.425Z,88.64
2018-10-05T00:38:55.328Z,88.45
2018-10-05T00:39:55.339Z,88.93
2018-10-05T00:41:48.248Z,88.55
2018-10-05T00:42:48.258Z,88.45
2018-10-05T00:44:41.159Z,88.45
2018-10-05T00:45:41.180Z,88.55
2018-10-05T00:47:34.084Z,88.64
2018-10-05T00:48:34.092Z,88.45
2018-10-05T00:50:26.993Z,88.45
2018-10-05T00:51:27.012Z,89.22
2018-10-05T00:53:19.986Z,89.03
2018-10-05T00:54:19.925Z,89.03
2018-10-05T00:56:12.825Z,88.93
2018-10-05T00:57:12.843Z,89.31
2018-10-05T00:59:05.762Z,89.22
2018-10-05T01:00:05.760Z,89.12
2018-10-05T01:01:58.673Z,89.31
2018-10-05T01:02:58.677Z,89.40
2018-10-05T01:04:51.573Z,88.93
2018-10-05T01:05:51.592Z,89.03
2018-10-05T01:07:44.497Z,89.03
2018-10-05T01:08:44.510Z,89.12
2018-10-05T01:10:37.409Z,88.74
2018-10-05T01:11:37.526Z,88.84
2018-10-05T01:13:30.367Z,89.40
2018-10-05T01:14:30.346Z,89.40
2018-10-05T01:16:23.253Z,89.03
2018-10-05T01:17:23.262Z,89.03
2018-10-05T01:19:16.184Z,89.50
2018-10-05T01:20:16.179Z,89.12
2018-10-05T01:22:09.108Z,89.98
2018-10-05T01:23:09.099Z,89.60
2018-10-05T01:25:01.997Z,89.55
2018-10-05T01:26:02.013Z,89.65
2018-10-05T01:27:54.923Z,89.55
2018-10-05T01:28:54.931Z,89.65
2018-10-05T01:30:47.829Z,89.36
2018-10-05T01:31:47.847Z,89.50
2018-10-05T01:33:40.754Z,89.36
2018-10-05T01:34:40.760Z,89.36
2018-10-05T01:36:33.662Z,89.36
2018-10-05T01:37:33.678Z,89.26
2018-10-05T01:39:26.583Z,89.46
2018-10-05T01:40:26.595Z,89.46
2018-10-05T01:42:19.512Z,89.17
2018-10-05T01:43:19.579Z,89.26
2018-10-05T01:45:12.601Z,89.36
2018-10-05T01:46:12.618Z,89.55
2018-10-05T01:48:05.523Z,89.26
2018-10-05T01:49:05.534Z,89.07
2018-10-05T01:50:58.429Z,89.55
2018-10-05T01:51:58.488Z,89.65
2018-10-05T01:53:51.355Z,89.65
2018-10-05T01:54:51.363Z,89.75
2018-10-05T01:56:44.262Z,89.84
2018-10-05T01:57:44.280Z,89.84
2018-10-05T01:59:37.191Z,89.94
2018-10-05T02:00:37.194Z,89.46
2018-10-05T02:02:30.126Z,89.07
2018-10-05T02:03:30.110Z,89.36
2018-10-05T02:05:23.018Z,89.36
2018-10-05T02:06:23.024Z,89.26
2018-10-05T02:08:15.932Z,89.17
2018-10-05T02:09:15.940Z,89.55
2018-10-05T02:11:08.839Z,89.55
2018-10-05T02:12:08.857Z,89.26
2018-10-05T02:14:01.763Z,89.55
2018-10-05T02:15:01.820Z,89.84
2018-10-05T02:16:54.675Z,89.84
2018-10-05T02:17:54.691Z,89.55
2018-10-05T02:19:47.600Z,89.36
2018-10-05T02:20:47.605Z,89.55
2018-10-05T02:22:40.506Z,89.46
2018-10-05T02:23:40.522Z,89.55
2018-10-05T02:25:33.526Z,89.65
2018-10-05T02:26:33.437Z,89.84
2018-10-05T02:28:26.347Z,89.55
2018-10-05T02:29:26.353Z,89.65
2018-10-05T02:31:19.252Z,89.36
2018-10-05T02:32:19.267Z,89.36
2018-10-05T02:34:12.181Z,89.36
2018-10-05T02:35:12.192Z,89.46
2018-10-05T02:37:05.131Z,89.55
2018-10-05T02:38:05.117Z,89.94
2018-10-05T02:39:58.018Z,89.94
2018-10-05T02:40:58.024Z,89.55
2018-10-05T02:42:50.931Z,89.89
2018-10-05T02:43:50.936Z,89.94
2018-10-05T02:45:43.850Z,89.75
2018-10-05T02:46:43.861Z,89.32
2018-10-05T02:48:36.763Z,90.08
2018-10-05T02:49:36.781Z,89.61
2018-10-05T02:51:29.671Z,89.51
2018-10-05T02:52:29.686Z,89.32
2018-10-05T02:54:22.594Z,89.98
2018-10-05T02:55:22.604Z,90.27
2018-10-05T02:57:15.500Z,89.98
2018-10-05T02:58:15.517Z,89.70
2018-10-05T03:00:08.421Z,89.51
2018-10-05T03:01:08.430Z,89.61
2018-10-05T03:03:01.329Z,89.61
2018-10-05T03:04:01.348Z,89.98
2018-10-05T03:05:54.255Z,89.98
2018-10-05T03:06:54.258Z,89.89
2018-10-05T03:08:47.172Z,90.08
2018-10-05T03:09:47.180Z,89.89
2018-10-05T03:11:40.081Z,89.89
2018-10-05T03:12:40.094Z,89.70
2018-10-05T03:14:33.006Z,89.70
2018-10-05T03:15:33.012Z,89.70
2018-10-05T03:17:25.917Z,90.27
2018-10-05T03:18:25.928Z,90.27
2018-10-05T03:20:18.841Z,90.31
2018-10-05T03:21:18.852Z,89.70
2018-10-05T03:23:11.747Z,89.89
2018-10-05T03:24:11.766Z,89.79
2018-10-05T03:26:04.670Z,90.03
2018-10-05T03:27:04.681Z,90.27
2018-10-05T03:28:57.585Z,89.32
2018-10-05T03:29:57.595Z,89.51
2018-10-05T03:31:50.493Z,89.51
2018-10-05T03:32:50.511Z,89.89
2018-10-05T03:34:43.420Z,89.79
2018-10-05T03:35:43.428Z,89.79
2018-10-05T03:37:43.493Z,89.89
2018-10-05T03:38:43.464Z,89.79
2018-10-05T03:40:29.259Z,89.79
2018-10-05T03:41:36.375Z,89.89
2018-10-05T03:43:22.153Z,89.51
2018-10-05T03:44:22.172Z,89.79
2018-10-05T03:46:15.072Z,89.51
2018-10-05T03:47:15.085Z,89.51
2018-10-05T03:49:07.989Z,90.08
2018-10-05T03:50:08.000Z,90.17
2018-10-05T03:52:00.899Z,90.27
2018-10-05T03:53:00.914Z,90.46
2018-10-05T03:54:53.827Z,90.27
2018-10-05T03:55:53.838Z,90.27
2018-10-05T03:57:46.739Z,90.46
2018-10-05T03:58:46.749Z,90.56
2018-10-05T04:00:39.660Z,90.17
2018-10-05T04:01:39.815Z,90.17
2018-10-05T04:03:32.721Z,90.46
2018-10-05T04:04:32.754Z,90.36
2018-10-05T04:06:25.748Z,90.65
2018-10-05T04:07:25.886Z,90.80
2018-10-05T04:09:18.723Z,90.75
2018-10-05T04:10:18.624Z,90.51
2018-10-05T04:12:11.696Z,90.22
2018-10-05T04:13:11.564Z,90.51
2018-10-05T04:15:04.479Z,90.51
2018-10-05T04:16:04.496Z,90.42
2018-10-05T04:17:57.401Z,90.42
2018-10-05T04:18:57.409Z,90.42
2018-10-05T04:20:50.416Z,90.03
2018-10-05T04:21:50.359Z,89.94
2018-10-05T04:23:43.263Z,90.22
2018-10-05T04:24:43.280Z,90.42
2018-10-05T04:26:36.182Z,90.61
2018-10-05T04:27:36.189Z,90.51
2018-10-05T04:29:29.097Z,90.61
2018-10-05T04:30:29.105Z,90.42
2018-10-05T04:32:22.005Z,90.03
2018-10-05T04:33:22.020Z,90.42
2018-10-05T04:35:14.924Z,90.22
2018-10-05T04:36:14.934Z,90.03
2018-10-05T04:38:07.835Z,90.32
2018-10-05T04:39:07.847Z,90.42
2018-10-05T04:41:00.791Z,90.51
2018-10-05T04:42:00.757Z,90.42
2018-10-05T04:43:53.658Z,90.22
2018-10-05T04:44:53.676Z,90.22
2018-10-05T04:46:46.771Z,90.13
2018-10-05T04:47:46.782Z,90.13
2018-10-05T04:49:39.818Z,90.51
2018-10-05T04:50:39.692Z,90.42
2018-10-05T04:52:32.603Z,89.84
2018-10-05T04:53:32.619Z,90.13
2018-10-05T04:55:25.540Z,90.03
2018-10-05T04:56:25.551Z,90.03
2018-10-05T04:58:18.443Z,90.32
2018-10-05T04:59:18.453Z,90.80
2018-10-05T05:01:11.911Z,90.61
2018-10-05T05:02:11.381Z,91.17
2018-10-05T05:04:04.262Z,91.08
2018-10-05T05:05:04.284Z,91.46
2018-10-05T05:06:58.189Z,91.65
2018-10-05T05:07:58.198Z,91.37
2018-10-05T05:09:51.099Z,92.03
2018-10-05T05:10:51.113Z,91.27
2018-10-05T05:12:44.008Z,91.46
2018-10-05T05:13:44.023Z,91.56
2018-10-05T05:15:36.933Z,91.75
2018-10-05T05:16:36.934Z,91.46
2018-10-05T05:18:29.833Z,91.65
2018-10-05T05:19:29.879Z,91.37
2018-10-05T05:21:22.766Z,91.08
2018-10-05T05:22:22.773Z,91.08
2018-10-05T05:24:15.667Z,90.89
2018-10-05T05:25:15.686Z,91.17
2018-10-05T05:27:08.590Z,91.27
2018-10-05T05:28:08.596Z,90.99
2018-10-05T05:30:01.506Z,90.32
2018-10-05T05:31:01.514Z,90.42
2018-10-05T05:32:54.411Z,90.51
2018-10-05T05:33:54.461Z,90.70
2018-10-05T05:35:47.335Z,90.61
2018-10-05T05:36:47.338Z,90.80
2018-10-05T05:38:40.240Z,90.61
2018-10-05T05:39:40.257Z,90.80
2018-10-05T05:41:33.157Z,90.80
2018-10-05T05:42:33.164Z,90.99
2018-10-05T05:44:26.066Z,90.61
2018-10-05T05:45:26.086Z,90.61
2018-10-05T05:47:18.986Z,90.80
2018-10-05T05:48:18.995Z,90.61
2018-10-05T05:50:11.896Z,90.61
2018-10-05T05:51:11.902Z,90.51
2018-10-05T05:53:04.808Z,90.80
2018-10-05T05:54:04.895Z,90.89
2018-10-05T05:55:57.728Z,90.80
2018-10-05T05:56:57.735Z,90.61
2018-10-05T05:58:50.635Z,90.42
2018-10-05T05:59:50.653Z,90.32
2018-10-05T06:01:43.559Z,90.42
2018-10-05T06:02:43.562Z,90.22
2018-10-05T06:04:36.459Z,90.61
2018-10-05T06:05:36.475Z,90.99
2018-10-05T06:07:29.377Z,90.61
2018-10-05T06:08:29.384Z,90.70
2018-10-05T06:10:22.296Z,91.08
2018-10-05T06:11:22.301Z,91.17
2018-10-05T06:13:15.203Z,91.94
2018-10-05T06:14:15.220Z,91.65
2018-10-05T06:16:08.206Z,92.03
2018-10-05T06:17:08.136Z,91.84
2018-10-05T06:19:01.034Z,91.60
2018-10-05T06:20:01.048Z,91.89
2018-10-05T06:21:54.334Z,92.08
2018-10-05T06:22:54.166Z,91.89
2018-10-05T06:24:47.068Z,92.98
2018-10-05T06:25:47.081Z,93.55
2018-10-05T06:27:39.990Z,95.89
2018-10-05T06:28:40.003Z,94.98
2018-10-05T06:30:32.916Z,94.07
2018-10-05T06:31:32.914Z,94.27
2018-10-05T06:33:25.982Z,90.88
2018-10-05T06:34:25.992Z,88.87
2018-10-05T06:36:19.905Z,85.44
2018-10-05T06:37:19.909Z,85.15
2018-10-05T06:39:12.862Z,83.81
2018-10-05T06:40:12.828Z,83.53
2018-10-05T06:42:05.780Z,82.91
2018-10-05T06:43:05.748Z,83.58
2018-10-05T06:44:58.652Z,83.39
2018-10-05T06:45:58.670Z,82.91
2018-10-05T06:47:51.575Z,82.91
2018-10-05T06:48:51.588Z,83.29
2018-10-05T06:50:44.493Z,83.44
2018-10-05T06:51:44.503Z,84.01
2018-10-05T06:53:37.406Z,84.59
2018-10-05T06:54:37.421Z,84.97
2018-10-05T06:56:30.328Z,85.25
2018-10-05T06:57:30.335Z,85.35
2018-10-05T06:59:23.232Z,86.21
2018-10-05T07:00:23.255Z,85.73
2018-10-05T07:02:16.160Z,86.69
2018-10-05T07:03:16.170Z,86.98
2018-10-05T07:05:09.069Z,87.45
2018-10-05T07:06:09.088Z,87.64
2018-10-05T07:08:02.057Z,88.50
2018-10-05T07:09:02.006Z,89.17
2018-10-05T07:10:54.925Z,89.17
2018-10-05T07:11:54.922Z,89.45
2018-10-05T07:13:47.823Z,89.93
2018-10-05T07:14:47.840Z,89.45
2018-10-05T07:16:40.751Z,89.54
2018-10-05T07:17:40.756Z,89.64
2018-10-05T07:19:33.658Z,89.74
2018-10-05T07:20:33.678Z,89.07
2018-10-05T07:22:26.628Z,89.45
2018-10-05T07:23:26.593Z,89.36
2018-10-05T07:25:19.498Z,89.69
2018-10-05T07:26:19.513Z,89.12
2018-10-05T07:28:12.444Z,88.83
2018-10-05T07:29:12.432Z,89.69
2018-10-05T07:31:05.333Z,89.21
2018-10-05T07:32:05.350Z,89.02
2018-10-05T07:33:58.264Z,89.78
2018-10-05T07:34:58.266Z,89.40
2018-10-05T07:36:51.206Z,89.59
2018-10-05T07:37:51.192Z,89.31
2018-10-05T07:39:44.099Z,89.54
2018-10-05T07:40:44.104Z,89.35
2018-10-05T07:42:37.015Z,89.64
2018-10-05T07:43:37.026Z,88.97
2018-10-05T07:45:29.930Z,88.97
2018-10-05T07:46:29.945Z,88.78
2018-10-05T07:48:22.848Z,87.39
2018-10-05T07:49:22.863Z,87.29
2018-10-05T07:51:15.765Z,86.91
2018-10-05T07:52:15.780Z,86.68
2018-10-05T07:54:08.692Z,87.01
2018-10-05T07:55:08.696Z,86.72
2018-10-05T07:57:01.609Z,86.91
2018-10-05T07:58:01.620Z,86.72
2018-10-05T07:59:55.014Z,86.82
2018-10-05T08:00:55.027Z,87.68
2018-10-05T08:02:47.942Z,87.01
2018-10-05T08:03:47.953Z,86.96
2018-10-05T08:05:40.856Z,86.96
2018-10-05T08:06:40.874Z,86.38
2018-10-05T08:08:33.790Z,84.85
2018-10-05T08:09:33.859Z,85.42
2018-10-05T08:11:26.695Z,85.52
2018-10-05T08:12:26.716Z,85.52
2018-10-05T08:14:19.633Z,85.62
2018-10-05T08:15:19.640Z,86.14
2018-10-05T08:17:12.755Z,85.09
2018-10-05T08:18:12.764Z,84.23
2018-10-05T08:20:05.669Z,82.98
2018-10-05T08:21:05.735Z,83.65
2018-10-05T08:22:58.598Z,83.17
2018-10-05T08:23:58.607Z,83.17
2018-10-05T08:25:51.581Z,83.12
2018-10-05T08:26:51.529Z,82.93
2018-10-05T08:28:44.444Z,82.26
2018-10-05T08:29:44.454Z,81.59
2018-10-05T08:31:37.356Z,81.88
2018-10-05T08:32:37.372Z,81.78
2018-10-05T08:34:30.374Z,82.26
2018-10-05T08:35:30.301Z,81.59
2018-10-05T08:37:23.210Z,81.05
2018-10-05T08:38:23.221Z,81.15
2018-10-05T08:40:16.232Z,80.58
2018-10-05T08:41:16.142Z,80.58
2018-10-05T08:43:09.058Z,81.15
2018-10-05T08:44:09.065Z,80.87
2018-10-05T08:46:02.047Z,80.62
2018-10-05T08:47:01.996Z,80.24
2018-10-05T08:48:54.902Z,80.52
2018-10-05T08:49:54.914Z,80.24
2018-10-05T08:51:47.865Z,79.89
2018-10-05T08:52:47.838Z,79.89
2018-10-05T08:54:40.757Z,79.89
2018-10-05T08:55:40.765Z,79.03
2018-10-05T08:57:33.672Z,78.17
2018-10-05T08:58:33.688Z,78.17
2018-10-05T09:00:26.626Z,78.17
2018-10-05T09:01:26.614Z,78.36
2018-10-05T09:03:19.528Z,77.78
2018-10-05T09:04:19.537Z,78.20
2018-10-05T09:06:12.446Z,77.53
2018-10-05T09:07:12.467Z,76.77
2018-10-05T09:09:05.378Z,76.29
2018-10-05T09:10:05.389Z,76.67
2018-10-05T09:11:58.293Z,76.86
2018-10-05T09:12:58.312Z,77.00
2018-10-05T09:14:51.232Z,76.10
2018-10-05T09:15:51.244Z,76.39
2018-10-05T09:17:44.238Z,76.71
2018-10-05T09:18:44.170Z,76.42
2018-10-05T09:20:37.074Z,76.32
2018-10-05T09:21:37.092Z,76.23
2018-10-05T09:23:30.010Z,76.42
2018-10-05T09:24:30.017Z,76.23
2018-10-05T09:26:22.929Z,75.98
2018-10-05T09:27:22.947Z,75.79
2018-10-05T09:29:15.898Z,76.17
2018-10-05T09:30:15.880Z,74.93
2018-10-05T09:32:09.822Z,74.06
2018-10-05T09:33:09.811Z,73.58
2018-10-05T09:35:02.728Z,72.63
2018-10-05T09:36:02.745Z,72.14
2018-10-05T09:37:55.742Z,72.24
2018-10-05T09:38:55.663Z,72.33
2018-10-05T09:40:48.570Z,71.47
2018-10-05T09:41:48.592Z,72.05
2018-10-05T09:43:41.513Z,72.24
2018-10-05T09:44:41.526Z,72.75
2018-10-05T09:46:34.436Z,71.41
2018-10-05T09:47:34.456Z,71.51
2018-10-05T09:49:27.377Z,71.12
2018-10-05T09:50:27.382Z,70.93
2018-10-05T09:52:20.361Z,70.45
2018-10-05T09:53:20.315Z,69.11
2018-10-05T09:55:13.231Z,68.37
2018-10-05T09:56:13.240Z,65.88
2018-10-05T09:58:06.165Z,65.88
2018-10-05T09:59:06.174Z,66.36
2018-10-05T10:00:59.076Z,67.22
2018-10-05T10:01:59.096Z,67.70
2018-10-05T10:03:52.015Z,66.07
2018-10-05T10:04:52.025Z,66.46
2018-10-05T10:06:44.935Z,65.40
2018-10-05T10:07:44.970Z,66.58
2018-10-05T10:09:37.878Z,66.58
2018-10-05T10:10:37.891Z,66.49
2018-10-05T12:31:00.585Z,53.41
2018-10-05T12:32:00.599Z,52.42
2018-10-05T12:33:53.506Z,52.52
2018-10-05T12:34:53.531Z,53.09
2018-10-05T12:36:46.449Z,53.41
2018-10-05T12:37:46.461Z,53.13
2018-10-05T12:39:39.375Z,53.13
2018-10-05T12:40:39.397Z,53.03
2018-10-05T12:42:33.326Z,52.73
2018-10-05T12:43:33.341Z,52.55
2018-10-05T12:45:26.262Z,52.16
2018-10-05T12:46:26.273Z,51.12
2018-10-05T12:48:19.187Z,51.41
2018-10-05T12:49:19.209Z,50.13
2018-10-05T12:51:12.125Z,51.89
2018-10-05T12:52:12.143Z,52.47
2018-10-05T12:54:05.055Z,52.19
2018-10-05T12:55:05.078Z,51.61
2018-10-05T12:56:57.997Z,51.89
2018-10-05T12:57:58.019Z,52.37
2018-10-05T12:59:50.925Z,50.93
2018-10-05T13:00:50.948Z,50.18
2018-10-05T13:02:43.869Z,50.26
2018-10-05T13:03:43.886Z,49.48
2018-10-05T13:05:36.807Z,49.58
2018-10-05T13:06:36.824Z,50.16
2018-10-05T13:08:29.737Z,50.54
2018-10-05T13:09:29.759Z,50.16
2018-10-05T13:11:22.686Z,49.48
2018-10-05T13:12:22.701Z,49.39
2018-10-05T13:14:15.633Z,50.06
2018-10-05T13:15:15.671Z,50.26
2018-10-05T13:17:08.558Z,50.06
2018-10-05T13:18:08.574Z,50.54
2018-10-05T13:20:01.485Z,51.05
2018-10-05T13:21:01.509Z,50.86
2018-10-05T13:22:54.436Z,50.38
2018-10-05T13:23:54.447Z,50.57
2018-10-05T13:25:47.573Z,50.09
2018-10-05T13:26:47.590Z,49.53
2018-10-05T13:28:40.540Z,49.24
2018-10-05T13:29:40.551Z,48.57
2018-10-05T13:31:33.476Z,47.58
2018-10-05T13:32:33.494Z,48.74
2018-10-05T13:34:26.423Z,48.35
2018-10-05T13:35:26.429Z,48.44
2018-10-05T13:37:19.396Z,48.44
2018-10-05T13:38:19.362Z,47.77
2018-10-05T17:30:35.916Z,68.73
2018-10-05T17:31:35.923Z,69.59
2018-10-05T17:33:28.839Z,69.20
2018-10-05T17:34:28.848Z,69.97
2018-10-05T17:36:21.764Z,69.97
2018-10-05T17:37:21.777Z,70.32
2018-10-05T17:39:14.696Z,70.32
2018-10-05T17:40:14.705Z,70.99
2018-10-05T17:42:07.609Z,71.09
2018-10-05T17:43:07.630Z,70.70
2018-10-05T17:45:00.560Z,71.37
2018-10-05T17:46:00.564Z,71.95
2018-10-05T17:47:53.486Z,71.86
2018-10-05T17:48:53.502Z,71.76
2018-10-05T17:50:46.420Z,72.05
2018-10-05T17:51:46.431Z,72.33
2018-10-05T17:53:39.342Z,72.05
2018-10-05T17:54:39.362Z,72.14
2018-10-05T17:56:32.274Z,72.72
2018-10-05T17:57:32.287Z,72.53
2018-10-05T17:59:25.207Z,72.81
2018-10-05T18:00:25.215Z,72.81
2018-10-05T18:02:18.188Z,72.68
2018-10-05T18:03:18.220Z,72.88
2018-10-05T18:05:11.384Z,72.01
2018-10-05T18:06:11.318Z,72.11
2018-10-05T18:08:04.453Z,72.39
2018-10-05T18:09:04.576Z,71.92
2018-10-05T18:10:58.596Z,72.39
2018-10-05T18:11:58.606Z,72.20
2018-10-05T18:13:51.518Z,72.20
2018-10-05T18:14:51.650Z,72.30
2018-10-05T18:16:44.465Z,71.53
2018-10-05T18:17:44.536Z,71.92
2018-10-05T18:19:37.396Z,71.34
2018-10-05T18:20:37.432Z,71.05
2018-10-05T18:22:30.372Z,70.57
2018-10-05T18:23:30.354Z,71.05
2018-10-05T18:25:23.523Z,69.90
2018-10-05T18:26:23.512Z,70.29
2018-10-05T18:28:16.436Z,70.29
2018-10-05T18:29:16.460Z,69.71
2018-10-05T18:31:09.573Z,69.04
2018-10-05T18:32:09.583Z,69.13
2018-10-05T18:34:02.789Z,68.56
2018-10-05T18:35:02.745Z,68.56
2018-10-05T18:36:55.704Z,68.18
2018-10-05T18:37:55.756Z,68.27
2018-10-05T18:39:48.751Z,67.60
2018-10-05T18:40:48.668Z,67.79
2018-10-05T18:42:42.613Z,67.69
2018-10-05T18:43:42.663Z,67.32
2018-10-05T18:45:35.566Z,67.69
2018-10-05T18:46:35.579Z,67.60
2018-10-05T18:48:28.525Z,67.41
2018-10-05T18:49:28.526Z,67.79
2018-10-05T18:51:21.558Z,67.89
2018-10-05T18:52:21.564Z,67.76
2018-10-05T18:54:14.648Z,67.57
2018-10-05T18:55:14.622Z,67.57
2018-10-05T18:57:07.580Z,67.95
2018-10-05T18:58:07.580Z,67.47
2018-10-05T19:00:01.500Z,67.66
2018-10-05T19:01:01.509Z,67.66
2018-10-05T19:02:54.356Z,67.57
2018-10-05T19:03:54.377Z,67.50
2018-10-05T19:05:47.293Z,67.09
2018-10-05T19:06:47.356Z,67.18
2018-10-05T19:08:40.212Z,67.60
2018-10-05T19:09:40.230Z,67.28
2018-10-05T19:11:33.145Z,66.89
2018-10-05T19:12:33.159Z,66.80
2018-10-05T19:14:26.068Z,66.99
2018-10-05T19:15:26.084Z,66.51
2018-10-05T19:17:18.997Z,66.61
2018-10-05T19:18:19.009Z,66.32
2018-10-05T19:20:11.918Z,66.71
2018-10-05T19:21:12.475Z,66.61
2018-10-05T19:23:04.846Z,66.89
2018-10-05T19:24:04.875Z,67.09
2018-10-05T19:25:57.832Z,67.28
2018-10-05T19:26:57.798Z,66.80
2018-10-05T19:28:50.694Z,66.99
2018-10-05T19:29:50.716Z,66.89
2018-10-05T19:31:43.627Z,67.18
2018-10-05T19:32:43.638Z,67.28
2018-10-05T19:34:36.545Z,67.44
2018-10-05T19:35:36.572Z,67.05
2018-10-05T19:37:29.903Z,67.15
2018-10-05T19:38:29.916Z,67.63
2018-10-05T19:40:22.833Z,67.15
2018-10-05T19:41:22.844Z,67.05
2018-10-05T19:43:15.751Z,67.82
2018-10-05T19:44:15.769Z,67.63
2018-10-05T19:46:08.680Z,68.11
2018-10-05T19:47:08.697Z,68.01
2018-10-05T19:49:01.599Z,68.68
2018-10-05T19:50:01.620Z,68.59
2018-10-05T19:51:54.533Z,69.07
2018-10-05T19:52:54.555Z,68.94
2018-10-05T19:54:47.454Z,69.60
2018-10-05T19:55:47.472Z,69.80
2018-10-05T19:57:40.391Z,69.32
2018-10-05T19:58:40.405Z,70.37
2018-10-05T20:00:33.331Z,70.18
2018-10-05T20:01:33.337Z,71.23
2018-10-05T20:03:26.245Z,70.95
2018-10-05T20:04:26.269Z,71.62
2018-10-05T20:06:19.209Z,71.68
2018-10-05T20:07:19.227Z,71.20
2018-10-05T20:09:12.128Z,72.25
2018-10-05T20:10:12.142Z,72.16
2018-10-05T20:12:05.056Z,71.58
2018-10-05T20:13:05.068Z,71.77
2018-10-05T20:14:57.976Z,71.87
2018-10-05T20:15:57.996Z,71.77
2018-10-05T20:17:50.958Z,72.44
2018-10-05T20:18:50.921Z,72.06
2018-10-05T20:20:43.838Z,72.63
2018-10-05T20:21:43.854Z,72.44
2018-10-05T20:23:36.757Z,72.63
2018-10-05T20:24:36.776Z,72.83
2018-10-05T20:26:29.693Z,73.08
2018-10-05T20:27:29.701Z,72.83
2018-10-05T20:29:22.605Z,72.79
2018-10-05T20:30:22.623Z,73.17
2018-10-05T20:32:15.538Z,73.17
2018-10-05T20:33:15.550Z,73.02
2018-10-05T20:35:08.458Z,73.36
2018-10-05T20:36:08.802Z,73.46
2018-10-05T20:38:01.389Z,73.46
2018-10-05T20:39:01.402Z,73.65
2018-10-05T20:40:54.343Z,73.65
2018-10-05T20:41:54.394Z,74.04
2018-10-05T20:43:47.226Z,73.94
2018-10-05T20:44:47.248Z,73.75
2018-10-05T20:46:40.157Z,74.41
2018-10-05T20:47:40.172Z,75.05
2018-10-05T20:49:33.080Z,74.76
2018-10-05T20:50:33.098Z,74.85
2018-10-05T20:52:26.000Z,74.95
2018-10-05T20:53:26.012Z,74.66
2018-10-05T20:55:18.917Z,75.34
2018-10-05T20:56:18.936Z,74.85
2018-10-05T20:58:11.865Z,74.95
2018-10-05T20:59:11.877Z,74.85
2018-10-05T21:01:04.805Z,74.85
2018-10-05T21:02:04.802Z,74.85
2018-10-05T21:03:57.714Z,74.76
2018-10-05T21:04:57.724Z,75.05
2018-10-05T21:06:50.700Z,75.05
2018-10-05T21:07:50.697Z,75.14
2018-10-05T21:09:43.582Z,74.85
2018-10-05T21:10:43.575Z,75.14
2018-10-05T21:12:36.555Z,75.05
2018-10-05T21:13:36.520Z,75.43
2018-10-05T21:15:29.425Z,75.62
2018-10-05T21:16:29.448Z,75.52
2018-10-05T21:18:22.354Z,75.52
2018-10-05T21:19:22.397Z,75.43
2018-10-05T21:21:15.284Z,75.62
2018-10-05T21:22:15.303Z,75.52
2018-10-05T21:24:08.417Z,75.43
2018-10-05T21:25:08.424Z,75.68
2018-10-05T21:27:01.338Z,75.87
2018-10-05T21:28:01.345Z,75.68
2018-10-05T21:29:54.262Z,75.87
2018-10-05T21:30:54.282Z,76.16
2018-10-05T21:32:47.227Z,75.96
2018-10-05T21:33:47.211Z,76.45
2018-10-05T21:35:40.104Z,76.64
2018-10-05T21:36:40.121Z,76.73
2018-10-05T21:38:33.037Z,76.54
2018-10-05T21:39:33.044Z,76.64
2018-10-05T21:41:25.956Z,77.21
2018-10-05T21:42:25.974Z,77.11
2018-10-05T21:44:18.888Z,76.82
2018-10-05T21:45:18.900Z,77.21
2018-10-05T21:47:11.812Z,77.50
2018-10-05T21:48:11.821Z,76.54
2018-10-05T21:50:04.722Z,76.35
2018-10-05T21:51:04.740Z,76.98
2018-10-05T21:52:57.654Z,76.98
2018-10-05T21:53:57.663Z,76.88
2018-10-05T21:55:50.564Z,77.08
2018-10-05T21:56:50.585Z,77.08
2018-10-05T21:58:43.492Z,77.08
2018-10-05T21:59:43.528Z,77.84
2018-10-05T22:01:36.406Z,77.45
2018-10-05T22:02:36.424Z,77.74
2018-10-05T22:04:29.337Z,77.74
2018-10-05T22:05:29.346Z,77.45
2018-10-05T22:07:22.254Z,77.65
2018-10-05T22:08:22.266Z,77.74
2018-10-05T22:10:15.168Z,77.94
2018-10-05T22:11:15.187Z,77.94
2018-10-05T22:13:08.103Z,77.65
2018-10-05T22:14:08.106Z,77.94
2018-10-05T22:16:01.011Z,77.94
2018-10-05T22:17:01.028Z,77.74
2018-10-05T22:18:53.938Z,77.74
2018-10-05T22:19:53.972Z,77.45
2018-10-05T22:21:46.849Z,77.55
2018-10-05T22:22:46.869Z,76.98
2018-10-05T22:24:39.778Z,77.45
2018-10-05T22:25:39.786Z,77.36
2018-10-05T22:27:32.701Z,76.88
2018-10-05T22:28:32.711Z,76.98
2018-10-05T22:30:25.615Z,77.45
2018-10-05T22:31:25.630Z,77.65
2018-10-05T22:33:18.540Z,77.55
2018-10-05T22:34:18.549Z,77.55
2018-10-05T22:36:11.451Z,77.55
2018-10-05T22:37:11.473Z,77.61
2018-10-05T22:39:04.381Z,77.55
2018-10-05T22:40:04.391Z,77.70
2018-10-05T22:41:57.470Z,77.45
2018-10-05T22:42:57.489Z,77.70
2018-10-05T22:44:50.404Z,77.42
2018-10-05T22:45:50.416Z,77.70
2018-10-05T22:47:43.331Z,78.13
2018-10-05T22:48:43.337Z,78.37
2018-10-05T22:50:36.244Z,78.47
2018-10-05T22:51:36.258Z,78.37
2018-10-05T22:53:29.174Z,78.47
2018-10-05T22:54:29.188Z,78.47
2018-10-05T22:56:22.084Z,78.28
2018-10-05T22:57:22.100Z,77.99
2018-10-05T22:59:15.010Z,77.99
2018-10-05T23:00:15.024Z,77.80
2018-10-05T23:02:07.926Z,78.37
2018-10-05T23:03:07.944Z,77.99
2018-10-05T23:05:00.851Z,78.66
2018-10-05T23:06:00.860Z,78.47
2018-10-05T23:07:53.773Z,78.66
2018-10-05T23:08:53.787Z,78.28
2018-10-05T23:10:46.689Z,78.47
2018-10-05T23:11:46.707Z,78.66
2018-10-05T23:13:39.826Z,78.28
2018-10-05T23:14:39.838Z,78.94
2018-10-05T23:16:33.737Z,78.56
2018-10-05T23:17:33.754Z,78.66
2018-10-05T23:19:26.665Z,78.75
2018-10-05T23:20:26.672Z,79.04
2018-10-05T23:22:19.775Z,79.14
2018-10-05T23:23:19.793Z,79.04
2018-10-05T23:25:12.699Z,78.66
2018-10-05T23:26:12.712Z,78.62
2018-10-05T23:28:05.618Z,78.72
2018-10-05T23:29:05.627Z,79.10
2018-10-05T23:30:58.529Z,79.28
2018-10-05T23:31:58.548Z,79.86
2018-10-05T23:33:51.460Z,79.77
2018-10-05T23:34:51.470Z,79.86
2018-10-05T23:36:44.367Z,79.48
2018-10-05T23:37:44.386Z,79.67
2018-10-05T23:39:37.297Z,79.57
2018-10-05T23:40:37.309Z,79.77
2018-10-05T23:42:30.212Z,79.86
2018-10-05T23:43:30.227Z,79.67
2018-10-05T23:45:23.140Z,79.67
2018-10-05T23:46:23.145Z,79.57
2018-10-05T23:48:16.055Z,80.05
2018-10-05T23:49:16.067Z,79.86
2018-10-05T23:51:08.971Z,79.96
2018-10-05T23:52:08.986Z,80.15
2018-10-05T23:54:01.894Z,80.15
2018-10-05T23:55:01.907Z,79.57
2018-10-05T23:56:54.806Z,79.57
2018-10-05T23:57:54.828Z,79.86
2018-10-05T23:59:47.740Z,79.96
